sensor_id;sensor_type;location;lat;lon;timestamp;temperature;humidity
7998;DHT22;4044;49.814;7.828;2023-09-18T00:02:20;18.30;99.10
7998;DHT22;4044;49.814;7.828;2023-09-18T00:04:45;18.20;99.90
7998;DHT22;4044;49.814;7.828;2023-09-18T00:07:11;18.10;99.70
7998;DHT22;4044;49.814;7.828;2023-09-18T00:09:36;18.00;99.40
7998;DHT22;4044;49.814;7.828;2023-09-18T00:12:02;18.00;99.90
7998;DHT22;4044;49.814;7.828;2023-09-18T00:14:28;18.00;99.70
7998;DHT22;4044;49.814;7.828;2023-09-18T00:16:53;17.90;99.60
7998;DHT22;4044;49.814;7.828;2023-09-18T00:19:19;17.90;99.90
7998;DHT22;4044;49.814;7.828;2023-09-18T00:21:44;17.80;99.90
7998;DHT22;4044;49.814;7.828;2023-09-18T00:24:10;17.80;99.70
7998;DHT22;4044;49.814;7.828;2023-09-18T00:26:37;17.80;99.90
7998;DHT22;4044;49.814;7.828;2023-09-18T00:29:02;17.70;99.90
7998;DHT22;4044;49.814;7.828;2023-09-18T00:31:28;17.60;99.90
7998;DHT22;4044;49.814;7.828;2023-09-18T00:33:53;17.60;99.90
7998;DHT22;4044;49.814;7.828;2023-09-18T00:36:19;17.60;99.90
7998;DHT22;4044;49.814;7.828;2023-09-18T00:38:44;17.60;99.90
7998;DHT22;4044;49.814;7.828;2023-09-18T00:41:10;17.60;99.80
7998;DHT22;4044;49.814;7.828;2023-09-18T00:43:35;17.60;99.90
7998;DHT22;4044;49.814;7.828;2023-09-18T00:46:01;17.60;99.90
7998;DHT22;4044;49.814;7.828;2023-09-18T00:48:27;17.60;99.90
7998;DHT22;4044;49.814;7.828;2023-09-18T00:50:53;17.60;99.90
7998;DHT22;4044;49.814;7.828;2023-09-18T00:53:22;17.60;99.90
7998;DHT22;4044;49.814;7.828;2023-09-18T00:55:50;17.60;99.80
7998;DHT22;4044;49.814;7.828;2023-09-18T00:58:17;17.60;99.90
7998;DHT22;4044;49.814;7.828;2023-09-18T01:00:44;17.70;99.80
7998;DHT22;4044;49.814;7.828;2023-09-18T01:03:10;17.70;99.90
7998;DHT22;4044;49.814;7.828;2023-09-18T01:05:36;17.90;99.90
7998;DHT22;4044;49.814;7.828;2023-09-18T01:08:02;17.90;99.90
7998;DHT22;4044;49.814;7.828;2023-09-18T01:10:36;18.00;99.90
7998;DHT22;4044;49.814;7.828;2023-09-18T01:13:11;18.10;99.90
7998;DHT22;4044;49.814;7.828;2023-09-18T01:15:52;18.20;99.90
7998;DHT22;4044;49.814;7.828;2023-09-18T01:18:19;18.30;99.90
7998;DHT22;4044;49.814;7.828;2023-09-18T01:20:44;18.40;99.90
7998;DHT22;4044;49.814;7.828;2023-09-18T01:23:10;18.50;99.90
7998;DHT22;4044;49.814;7.828;2023-09-18T01:25:37;18.60;99.80
7998;DHT22;4044;49.814;7.828;2023-09-18T01:28:03;18.60;99.90
7998;DHT22;4044;49.814;7.828;2023-09-18T01:30:28;18.20;99.90
7998;DHT22;4044;49.814;7.828;2023-09-18T01:32:56;18.20;99.90
7998;DHT22;4044;49.814;7.828;2023-09-18T01:35:22;18.30;99.90
7998;DHT22;4044;49.814;7.828;2023-09-18T01:37:55;18.40;99.90
7998;DHT22;4044;49.814;7.828;2023-09-18T01:40:22;18.50;99.90
7998;DHT22;4044;49.814;7.828;2023-09-18T01:42:48;18.70;99.90
7998;DHT22;4044;49.814;7.828;2023-09-18T01:45:14;18.80;99.90
7998;DHT22;4044;49.814;7.828;2023-09-18T01:47:39;18.90;99.90
7998;DHT22;4044;49.814;7.828;2023-09-18T01:50:05;18.90;99.90
7998;DHT22;4044;49.814;7.828;2023-09-18T01:52:31;18.90;99.90
7998;DHT22;4044;49.814;7.828;2023-09-18T01:54:56;18.90;99.90
7998;DHT22;4044;49.814;7.828;2023-09-18T01:57:22;18.80;99.90
7998;DHT22;4044;49.814;7.828;2023-09-18T01:59:47;18.90;99.90
7998;DHT22;4044;49.814;7.828;2023-09-18T02:02:13;18.90;99.90
7998;DHT22;4044;49.814;7.828;2023-09-18T02:04:38;18.90;99.90
7998;DHT22;4044;49.814;7.828;2023-09-18T02:07:05;18.90;99.90
7998;DHT22;4044;49.814;7.828;2023-09-18T02:09:31;18.90;99.90
7998;DHT22;4044;49.814;7.828;2023-09-18T02:11:57;18.90;99.90
7998;DHT22;4044;49.814;7.828;2023-09-18T02:14:22;18.80;99.90
7998;DHT22;4044;49.814;7.828;2023-09-18T02:16:48;18.80;99.90
7998;DHT22;4044;49.814;7.828;2023-09-18T02:19:14;18.70;99.80
7998;DHT22;4044;49.814;7.828;2023-09-18T02:21:41;18.70;99.90
7998;DHT22;4044;49.814;7.828;2023-09-18T02:24:07;18.60;99.90
7998;DHT22;4044;49.814;7.828;2023-09-18T02:26:32;18.60;99.90
7998;DHT22;4044;49.814;7.828;2023-09-18T02:29:00;18.60;99.90
7998;DHT22;4044;49.814;7.828;2023-09-18T02:31:25;18.50;99.90
7998;DHT22;4044;49.814;7.828;2023-09-18T02:33:51;18.50;99.90
7998;DHT22;4044;49.814;7.828;2023-09-18T02:36:17;18.50;99.90
7998;DHT22;4044;49.814;7.828;2023-09-18T02:38:42;18.50;99.90
7998;DHT22;4044;49.814;7.828;2023-09-18T02:41:09;18.50;99.90
7998;DHT22;4044;49.814;7.828;2023-09-18T02:43:35;18.60;99.90
7998;DHT22;4044;49.814;7.828;2023-09-18T02:46:03;18.60;99.90
7998;DHT22;4044;49.814;7.828;2023-09-18T02:48:30;18.70;99.90
7998;DHT22;4044;49.814;7.828;2023-09-18T02:50:55;18.70;99.90
7998;DHT22;4044;49.814;7.828;2023-09-18T02:53:23;18.70;99.90
7998;DHT22;4044;49.814;7.828;2023-09-18T02:55:52;18.80;99.90
7998;DHT22;4044;49.814;7.828;2023-09-18T02:58:18;18.80;99.90
7998;DHT22;4044;49.814;7.828;2023-09-18T03:00:45;18.90;99.90
7998;DHT22;4044;49.814;7.828;2023-09-18T03:03:11;18.90;99.90
7998;DHT22;4044;49.814;7.828;2023-09-18T03:05:38;18.70;99.90
7998;DHT22;4044;49.814;7.828;2023-09-18T03:08:04;18.70;99.90
7998;DHT22;4044;49.814;7.828;2023-09-18T03:10:40;18.60;99.90
7998;DHT22;4044;49.814;7.828;2023-09-18T03:13:07;18.50;99.90
7998;DHT22;4044;49.814;7.828;2023-09-18T03:15:33;18.50;99.90
7998;DHT22;4044;49.814;7.828;2023-09-18T03:17:59;18.60;99.90
7998;DHT22;4044;49.814;7.828;2023-09-18T03:20:26;18.50;99.90
7998;DHT22;4044;49.814;7.828;2023-09-18T03:22:55;18.60;99.90
7998;DHT22;4044;49.814;7.828;2023-09-18T03:25:20;18.70;99.90
7998;DHT22;4044;49.814;7.828;2023-09-18T03:27:47;18.70;99.90
7998;DHT22;4044;49.814;7.828;2023-09-18T03:30:13;18.70;99.90
7998;DHT22;4044;49.814;7.828;2023-09-18T03:32:41;18.60;99.90
7998;DHT22;4044;49.814;7.828;2023-09-18T03:35:07;18.60;99.90
7998;DHT22;4044;49.814;7.828;2023-09-18T03:37:35;18.60;99.90
7998;DHT22;4044;49.814;7.828;2023-09-18T03:40:00;18.60;99.90
7998;DHT22;4044;49.814;7.828;2023-09-18T03:42:27;18.60;99.90
7998;DHT22;4044;49.814;7.828;2023-09-18T03:44:52;18.60;99.90
7998;DHT22;4044;49.814;7.828;2023-09-18T03:47:18;18.60;99.90
7998;DHT22;4044;49.814;7.828;2023-09-18T03:49:43;18.60;99.90
7998;DHT22;4044;49.814;7.828;2023-09-18T03:52:09;18.60;99.90
7998;DHT22;4044;49.814;7.828;2023-09-18T03:54:34;18.60;99.90
7998;DHT22;4044;49.814;7.828;2023-09-18T03:57:00;18.60;99.90
7998;DHT22;4044;49.814;7.828;2023-09-18T03:59:25;18.50;99.90
7998;DHT22;4044;49.814;7.828;2023-09-18T04:01:51;18.50;99.90
7998;DHT22;4044;49.814;7.828;2023-09-18T04:04:17;18.50;99.90
7998;DHT22;4044;49.814;7.828;2023-09-18T04:06:43;18.50;99.90
7998;DHT22;4044;49.814;7.828;2023-09-18T04:09:10;18.50;99.90
7998;DHT22;4044;49.814;7.828;2023-09-18T04:11:35;18.60;99.90
7998;DHT22;4044;49.814;7.828;2023-09-18T04:14:02;18.50;99.90
7998;DHT22;4044;49.814;7.828;2023-09-18T04:16:29;18.50;99.90
7998;DHT22;4044;49.814;7.828;2023-09-18T04:18:56;18.50;99.90
7998;DHT22;4044;49.814;7.828;2023-09-18T04:21:22;18.50;99.90
7998;DHT22;4044;49.814;7.828;2023-09-18T04:23:47;18.50;99.90
7998;DHT22;4044;49.814;7.828;2023-09-18T04:26:13;18.50;99.90
7998;DHT22;4044;49.814;7.828;2023-09-18T04:28:42;18.50;99.90
7998;DHT22;4044;49.814;7.828;2023-09-18T04:31:07;18.60;99.90
7998;DHT22;4044;49.814;7.828;2023-09-18T04:33:33;18.60;99.90
7998;DHT22;4044;49.814;7.828;2023-09-18T04:35:58;18.60;99.90
7998;DHT22;4044;49.814;7.828;2023-09-18T04:38:24;18.60;99.90
7998;DHT22;4044;49.814;7.828;2023-09-18T04:40:49;18.50;99.90
7998;DHT22;4044;49.814;7.828;2023-09-18T04:43:15;18.50;99.90
7998;DHT22;4044;49.814;7.828;2023-09-18T04:45:40;18.40;99.90
7998;DHT22;4044;49.814;7.828;2023-09-18T04:48:07;18.40;99.90
7998;DHT22;4044;49.814;7.828;2023-09-18T04:50:33;18.50;99.90
7998;DHT22;4044;49.814;7.828;2023-09-18T04:52:59;18.40;99.90
7998;DHT22;4044;49.814;7.828;2023-09-18T04:55:25;18.40;99.90
7998;DHT22;4044;49.814;7.828;2023-09-18T04:57:50;18.40;99.90
7998;DHT22;4044;49.814;7.828;2023-09-18T05:00:16;18.40;99.90
7998;DHT22;4044;49.814;7.828;2023-09-18T05:02:42;18.40;99.90
7998;DHT22;4044;49.814;7.828;2023-09-18T05:05:08;18.30;99.90
7998;DHT22;4044;49.814;7.828;2023-09-18T05:07:37;18.30;99.90
7998;DHT22;4044;49.814;7.828;2023-09-18T05:10:03;18.30;99.90
7998;DHT22;4044;49.814;7.828;2023-09-18T05:12:30;18.30;99.90
7998;DHT22;4044;49.814;7.828;2023-09-18T05:14:55;18.30;99.90
7998;DHT22;4044;49.814;7.828;2023-09-18T05:17:45;18.30;99.90
7998;DHT22;4044;49.814;7.828;2023-09-18T05:20:17;18.40;99.90
7998;DHT22;4044;49.814;7.828;2023-09-18T05:22:43;18.40;99.90
7998;DHT22;4044;49.814;7.828;2023-09-18T05:25:11;18.40;99.90
7998;DHT22;4044;49.814;7.828;2023-09-18T05:27:38;18.40;99.90
7998;DHT22;4044;49.814;7.828;2023-09-18T05:30:22;18.40;99.90
7998;DHT22;4044;49.814;7.828;2023-09-18T05:32:48;18.40;99.90
7998;DHT22;4044;49.814;7.828;2023-09-18T05:35:14;18.40;99.90
7998;DHT22;4044;49.814;7.828;2023-09-18T05:37:41;18.50;99.90
7998;DHT22;4044;49.814;7.828;2023-09-18T05:40:08;18.70;99.90
7998;DHT22;4044;49.814;7.828;2023-09-18T05:42:41;18.80;99.90
7998;DHT22;4044;49.814;7.828;2023-09-18T05:45:11;19.10;99.90
7998;DHT22;4044;49.814;7.828;2023-09-18T05:47:37;19.30;99.90
7998;DHT22;4044;49.814;7.828;2023-09-18T05:50:05;19.30;99.90
7998;DHT22;4044;49.814;7.828;2023-09-18T05:52:32;19.40;99.90
7998;DHT22;4044;49.814;7.828;2023-09-18T05:54:57;19.50;99.90
7998;DHT22;4044;49.814;7.828;2023-09-18T05:57:23;19.50;99.40
7998;DHT22;4044;49.814;7.828;2023-09-18T05:59:48;19.70;99.00
7998;DHT22;4044;49.814;7.828;2023-09-18T06:02:14;19.80;99.00
7998;DHT22;4044;49.814;7.828;2023-09-18T06:04:41;19.90;98.50
7998;DHT22;4044;49.814;7.828;2023-09-18T06:07:07;19.90;98.40
7998;DHT22;4044;49.814;7.828;2023-09-18T06:09:32;20.00;98.70
7998;DHT22;4044;49.814;7.828;2023-09-18T06:11:58;20.00;98.90
7998;DHT22;4044;49.814;7.828;2023-09-18T06:14:24;20.00;98.60
7998;DHT22;4044;49.814;7.828;2023-09-18T06:16:50;20.10;98.70
7998;DHT22;4044;49.814;7.828;2023-09-18T06:19:16;20.10;98.70
7998;DHT22;4044;49.814;7.828;2023-09-18T06:21:44;20.20;98.50
7998;DHT22;4044;49.814;7.828;2023-09-18T06:24:10;20.20;98.30
7998;DHT22;4044;49.814;7.828;2023-09-18T06:26:35;20.20;98.50
7998;DHT22;4044;49.814;7.828;2023-09-18T06:29:01;20.30;98.60
7998;DHT22;4044;49.814;7.828;2023-09-18T06:31:30;20.30;98.60
7998;DHT22;4044;49.814;7.828;2023-09-18T06:33:56;20.30;98.50
7998;DHT22;4044;49.814;7.828;2023-09-18T06:36:22;20.30;98.10
7998;DHT22;4044;49.814;7.828;2023-09-18T06:38:48;20.40;97.70
7998;DHT22;4044;49.814;7.828;2023-09-18T06:41:13;20.50;97.80
7998;DHT22;4044;49.814;7.828;2023-09-18T06:43:39;20.50;97.20
7998;DHT22;4044;49.814;7.828;2023-09-18T06:46:07;20.60;97.30
7998;DHT22;4044;49.814;7.828;2023-09-18T06:48:32;20.60;97.00
7998;DHT22;4044;49.814;7.828;2023-09-18T06:50:59;20.70;96.90
7998;DHT22;4044;49.814;7.828;2023-09-18T06:53:26;20.80;97.10
7998;DHT22;4044;49.814;7.828;2023-09-18T06:55:53;20.90;97.20
7998;DHT22;4044;49.814;7.828;2023-09-18T06:58:18;20.90;97.00
7998;DHT22;4044;49.814;7.828;2023-09-18T07:00:44;20.90;96.90
7998;DHT22;4044;49.814;7.828;2023-09-18T07:03:09;20.90;96.70
7998;DHT22;4044;49.814;7.828;2023-09-18T07:05:35;20.90;96.70
7998;DHT22;4044;49.814;7.828;2023-09-18T07:08:00;20.90;96.40
7998;DHT22;4044;49.814;7.828;2023-09-18T07:10:26;21.00;96.70
7998;DHT22;4044;49.814;7.828;2023-09-18T07:12:52;21.00;96.40
7998;DHT22;4044;49.814;7.828;2023-09-18T07:15:17;21.00;96.50
7998;DHT22;4044;49.814;7.828;2023-09-18T07:17:43;21.10;96.20
7998;DHT22;4044;49.814;7.828;2023-09-18T07:20:09;21.00;96.50
7998;DHT22;4044;49.814;7.828;2023-09-18T07:22:44;21.00;96.30
7998;DHT22;4044;49.814;7.828;2023-09-18T07:25:10;21.00;96.40
7998;DHT22;4044;49.814;7.828;2023-09-18T07:27:36;21.10;96.50
7998;DHT22;4044;49.814;7.828;2023-09-18T07:30:04;21.10;96.40
7998;DHT22;4044;49.814;7.828;2023-09-18T07:32:30;21.20;96.00
7998;DHT22;4044;49.814;7.828;2023-09-18T07:34:55;21.30;96.00
7998;DHT22;4044;49.814;7.828;2023-09-18T07:37:21;21.40;95.90
7998;DHT22;4044;49.814;7.828;2023-09-18T07:39:47;21.50;96.00
7998;DHT22;4044;49.814;7.828;2023-09-18T07:42:12;21.50;95.60
7998;DHT22;4044;49.814;7.828;2023-09-18T07:44:38;21.50;95.00
7998;DHT22;4044;49.814;7.828;2023-09-18T07:47:03;21.60;95.00
7998;DHT22;4044;49.814;7.828;2023-09-18T07:49:29;21.60;94.70
7998;DHT22;4044;49.814;7.828;2023-09-18T07:51:55;21.60;94.40
7998;DHT22;4044;49.814;7.828;2023-09-18T07:54:20;21.70;94.70
7998;DHT22;4044;49.814;7.828;2023-09-18T07:56:46;21.70;94.30
7998;DHT22;4044;49.814;7.828;2023-09-18T07:59:11;21.70;94.30
7998;DHT22;4044;49.814;7.828;2023-09-18T08:01:39;21.70;94.40
7998;DHT22;4044;49.814;7.828;2023-09-18T08:04:05;21.70;94.10
7998;DHT22;4044;49.814;7.828;2023-09-18T08:06:31;21.80;94.20
7998;DHT22;4044;49.814;7.828;2023-09-18T08:08:56;21.70;93.90
7998;DHT22;4044;49.814;7.828;2023-09-18T08:11:22;21.70;94.10
7998;DHT22;4044;49.814;7.828;2023-09-18T08:13:47;21.90;94.50
7998;DHT22;4044;49.814;7.828;2023-09-18T08:16:13;22.00;94.40
7998;DHT22;4044;49.814;7.828;2023-09-18T08:18:39;21.90;93.80
7998;DHT22;4044;49.814;7.828;2023-09-18T08:21:07;21.90;94.00
7998;DHT22;4044;49.814;7.828;2023-09-18T08:23:35;21.90;94.00
7998;DHT22;4044;49.814;7.828;2023-09-18T08:26:01;21.80;93.60
7998;DHT22;4044;49.814;7.828;2023-09-18T08:28:28;21.80;94.00
7998;DHT22;4044;49.814;7.828;2023-09-18T08:30:53;21.80;94.00
7998;DHT22;4044;49.814;7.828;2023-09-18T08:33:20;21.80;94.10
7998;DHT22;4044;49.814;7.828;2023-09-18T08:35:45;21.80;93.80
7998;DHT22;4044;49.814;7.828;2023-09-18T08:38:13;21.80;93.80
7998;DHT22;4044;49.814;7.828;2023-09-18T08:40:40;21.80;93.70
7998;DHT22;4044;49.814;7.828;2023-09-18T08:43:06;21.70;93.70
7998;DHT22;4044;49.814;7.828;2023-09-18T08:46:08;21.70;93.90
7998;DHT22;4044;49.814;7.828;2023-09-18T08:48:34;21.70;94.20
7998;DHT22;4044;49.814;7.828;2023-09-18T08:51:04;21.70;93.80
7998;DHT22;4044;49.814;7.828;2023-09-18T08:53:35;21.70;94.10
7998;DHT22;4044;49.814;7.828;2023-09-18T08:56:02;21.70;93.90
7998;DHT22;4044;49.814;7.828;2023-09-18T08:58:33;21.70;93.80
7998;DHT22;4044;49.814;7.828;2023-09-18T09:01:01;21.80;93.70
7998;DHT22;4044;49.814;7.828;2023-09-18T09:03:29;22.00;93.30
7998;DHT22;4044;49.814;7.828;2023-09-18T09:05:55;21.90;93.60
7998;DHT22;4044;49.814;7.828;2023-09-18T09:08:21;21.90;93.50
7998;DHT22;4044;49.814;7.828;2023-09-18T09:10:46;22.00;93.60
7998;DHT22;4044;49.814;7.828;2023-09-18T09:13:14;22.00;93.10
7998;DHT22;4044;49.814;7.828;2023-09-18T09:15:47;22.00;93.50
7998;DHT22;4044;49.814;7.828;2023-09-18T09:18:14;22.00;93.30
7998;DHT22;4044;49.814;7.828;2023-09-18T09:21:03;22.00;93.40
7998;DHT22;4044;49.814;7.828;2023-09-18T09:23:52;22.10;93.40
7998;DHT22;4044;49.814;7.828;2023-09-18T09:26:20;21.90;93.40
7998;DHT22;4044;49.814;7.828;2023-09-18T09:28:46;21.90;93.30
7998;DHT22;4044;49.814;7.828;2023-09-18T09:31:23;22.00;93.50
7998;DHT22;4044;49.814;7.828;2023-09-18T09:33:51;22.20;93.40
7998;DHT22;4044;49.814;7.828;2023-09-18T09:36:19;22.40;93.70
7998;DHT22;4044;49.814;7.828;2023-09-18T09:38:45;22.40;92.90
7998;DHT22;4044;49.814;7.828;2023-09-18T09:41:14;22.40;92.70
7998;DHT22;4044;49.814;7.828;2023-09-18T09:43:42;22.30;93.10
7998;DHT22;4044;49.814;7.828;2023-09-18T09:46:15;22.40;92.80
7998;DHT22;4044;49.814;7.828;2023-09-18T09:49:06;22.40;92.80
7998;DHT22;4044;49.814;7.828;2023-09-18T09:51:33;22.60;93.10
7998;DHT22;4044;49.814;7.828;2023-09-18T09:54:00;22.70;92.80
7998;DHT22;4044;49.814;7.828;2023-09-18T09:56:46;22.90;92.70
7998;DHT22;4044;49.814;7.828;2023-09-18T09:59:14;22.90;92.40
7998;DHT22;4044;49.814;7.828;2023-09-18T10:01:40;22.90;92.60
7998;DHT22;4044;49.814;7.828;2023-09-18T10:04:09;23.00;92.40
7998;DHT22;4044;49.814;7.828;2023-09-18T10:06:36;23.00;92.30
7998;DHT22;4044;49.814;7.828;2023-09-18T10:09:03;23.00;92.20
7998;DHT22;4044;49.814;7.828;2023-09-18T10:11:31;23.10;92.10
7998;DHT22;4044;49.814;7.828;2023-09-18T10:14:01;23.30;92.50
7998;DHT22;4044;49.814;7.828;2023-09-18T10:16:31;23.30;91.90
7998;DHT22;4044;49.814;7.828;2023-09-18T10:19:04;23.10;92.10
7998;DHT22;4044;49.814;7.828;2023-09-18T10:21:41;23.10;92.30
7998;DHT22;4044;49.814;7.828;2023-09-18T10:24:25;23.20;91.80
7998;DHT22;4044;49.814;7.828;2023-09-18T10:26:59;23.20;91.90
7998;DHT22;4044;49.814;7.828;2023-09-18T10:29:26;23.20;92.00
7998;DHT22;4044;49.814;7.828;2023-09-18T10:31:53;23.50;91.80
7998;DHT22;4044;49.814;7.828;2023-09-18T10:34:20;23.30;91.60
7998;DHT22;4044;49.814;7.828;2023-09-18T10:36:48;23.20;91.80
7998;DHT22;4044;49.814;7.828;2023-09-18T10:39:14;23.30;91.70
7998;DHT22;4044;49.814;7.828;2023-09-18T10:41:47;23.60;91.80
7998;DHT22;4044;49.814;7.828;2023-09-18T10:44:14;23.40;91.60
7998;DHT22;4044;49.814;7.828;2023-09-18T10:46:39;23.50;91.70
7998;DHT22;4044;49.814;7.828;2023-09-18T10:49:05;23.30;91.40
7998;DHT22;4044;49.814;7.828;2023-09-18T10:51:32;23.20;91.50
7998;DHT22;4044;49.814;7.828;2023-09-18T10:53:59;23.20;91.70
7998;DHT22;4044;49.814;7.828;2023-09-18T10:56:25;23.30;91.50
7998;DHT22;4044;49.814;7.828;2023-09-18T10:58:59;23.20;91.60
7998;DHT22;4044;49.814;7.828;2023-09-18T11:01:25;23.40;91.50
7998;DHT22;4044;49.814;7.828;2023-09-18T11:03:53;23.50;91.90
7998;DHT22;4044;49.814;7.828;2023-09-18T11:06:19;23.40;91.60
7998;DHT22;4044;49.814;7.828;2023-09-18T11:08:49;23.40;91.80
7998;DHT22;4044;49.814;7.828;2023-09-18T11:11:18;23.50;91.80
7998;DHT22;4044;49.814;7.828;2023-09-18T11:13:47;23.70;91.50
7998;DHT22;4044;49.814;7.828;2023-09-18T11:19:16;23.70;91.10
7998;DHT22;4044;49.814;7.828;2023-09-18T11:21:39;23.60;91.20
7998;DHT22;4044;49.814;7.828;2023-09-18T11:24:15;23.80;90.90
7998;DHT22;4044;49.814;7.828;2023-09-18T11:26:42;23.70;91.30
7998;DHT22;4044;49.814;7.828;2023-09-18T11:29:10;23.80;91.90
7998;DHT22;4044;49.814;7.828;2023-09-18T11:31:56;23.80;91.00
7998;DHT22;4044;49.814;7.828;2023-09-18T11:34:23;24.00;90.80
7998;DHT22;4044;49.814;7.828;2023-09-18T11:36:50;24.30;90.80
7998;DHT22;4044;49.814;7.828;2023-09-18T11:39:38;24.40;90.60
7998;DHT22;4044;49.814;7.828;2023-09-18T11:42:09;24.40;90.30
7998;DHT22;4044;49.814;7.828;2023-09-18T11:44:35;24.60;90.30
7998;DHT22;4044;49.814;7.828;2023-09-18T11:47:16;24.50;90.10
7998;DHT22;4044;49.814;7.828;2023-09-18T11:52:21;24.80;90.40
7998;DHT22;4044;49.814;7.828;2023-09-18T11:54:47;25.00;90.40
7998;DHT22;4044;49.814;7.828;2023-09-18T11:57:13;25.40;89.60
7998;DHT22;4044;49.814;7.828;2023-09-18T11:59:42;25.80;87.00
7998;DHT22;4044;49.814;7.828;2023-09-18T12:02:09;26.10;87.50
7998;DHT22;4044;49.814;7.828;2023-09-18T12:04:36;26.10;87.00
7998;DHT22;4044;49.814;7.828;2023-09-18T12:07:05;26.00;85.50
7998;DHT22;4044;49.814;7.828;2023-09-18T12:09:33;25.70;84.70
7998;DHT22;4044;49.814;7.828;2023-09-18T12:11:59;25.40;85.80
7998;DHT22;4044;49.814;7.828;2023-09-18T12:14:33;25.30;86.60
7998;DHT22;4044;49.814;7.828;2023-09-18T12:17:03;25.20;86.20
7998;DHT22;4044;49.814;7.828;2023-09-18T12:19:29;24.70;86.70
7998;DHT22;4044;49.814;7.828;2023-09-18T12:21:55;24.50;87.50
7998;DHT22;4044;49.814;7.828;2023-09-18T12:24:22;24.60;87.00
7998;DHT22;4044;49.814;7.828;2023-09-18T12:26:48;24.50;87.60
7998;DHT22;4044;49.814;7.828;2023-09-18T12:29:14;24.70;88.10
7998;DHT22;4044;49.814;7.828;2023-09-18T12:31:41;24.80;87.80
7998;DHT22;4044;49.814;7.828;2023-09-18T12:34:34;24.90;88.30
7998;DHT22;4044;49.814;7.828;2023-09-18T12:37:00;25.40;87.70
7998;DHT22;4044;49.814;7.828;2023-09-18T12:39:31;26.00;85.10
7998;DHT22;4044;49.814;7.828;2023-09-18T12:41:57;26.40;84.40
7998;DHT22;4044;49.814;7.828;2023-09-18T12:44:23;26.40;82.80
7998;DHT22;4044;49.814;7.828;2023-09-18T12:46:49;26.50;82.10
7998;DHT22;4044;49.814;7.828;2023-09-18T12:49:21;26.20;82.10
7998;DHT22;4044;49.814;7.828;2023-09-18T12:51:58;26.10;81.70
7998;DHT22;4044;49.814;7.828;2023-09-18T12:54:44;26.10;82.10
7998;DHT22;4044;49.814;7.828;2023-09-18T12:57:19;26.10;81.70
7998;DHT22;4044;49.814;7.828;2023-09-18T12:59:45;25.90;81.90
7998;DHT22;4044;49.814;7.828;2023-09-18T13:02:13;25.90;81.90
7998;DHT22;4044;49.814;7.828;2023-09-18T13:04:39;25.90;82.00
7998;DHT22;4044;49.814;7.828;2023-09-18T13:07:11;25.50;82.10
7998;DHT22;4044;49.814;7.828;2023-09-18T13:09:38;25.60;82.90
7998;DHT22;4044;49.814;7.828;2023-09-18T13:12:04;25.80;82.50
7998;DHT22;4044;49.814;7.828;2023-09-18T13:15:00;25.90;81.30
7998;DHT22;4044;49.814;7.828;2023-09-18T13:20:21;26.20;81.50
7998;DHT22;4044;49.814;7.828;2023-09-18T13:22:50;26.50;79.80
7998;DHT22;4044;49.814;7.828;2023-09-18T13:25:21;27.60;80.60
7998;DHT22;4044;49.814;7.828;2023-09-18T13:27:48;28.90;77.60
7998;DHT22;4044;49.814;7.828;2023-09-18T13:30:14;29.50;73.60
7998;DHT22;4044;49.814;7.828;2023-09-18T13:32:43;30.20;73.00
7998;DHT22;4044;49.814;7.828;2023-09-18T13:35:10;30.60;71.90
7998;DHT22;4044;49.814;7.828;2023-09-18T13:37:37;31.30;70.30
7998;DHT22;4044;49.814;7.828;2023-09-18T13:40:04;32.10;68.60
7998;DHT22;4044;49.814;7.828;2023-09-18T13:42:34;31.30;68.00
7998;DHT22;4044;49.814;7.828;2023-09-18T13:45:00;31.10;66.40
7998;DHT22;4044;49.814;7.828;2023-09-18T13:47:27;30.50;69.70
7998;DHT22;4044;49.814;7.828;2023-09-18T13:49:53;30.20;71.10
7998;DHT22;4044;49.814;7.828;2023-09-18T13:52:19;29.90;69.30
7998;DHT22;4044;49.814;7.828;2023-09-18T13:54:45;29.50;70.80
7998;DHT22;4044;49.814;7.828;2023-09-18T13:57:17;29.30;71.00
7998;DHT22;4044;49.814;7.828;2023-09-18T13:59:42;29.60;71.20
7998;DHT22;4044;49.814;7.828;2023-09-18T14:02:08;30.10;70.50
7998;DHT22;4044;49.814;7.828;2023-09-18T14:04:34;30.70;67.70
7998;DHT22;4044;49.814;7.828;2023-09-18T14:06:59;31.10;67.10
7998;DHT22;4044;49.814;7.828;2023-09-18T14:09:25;31.00;66.40
7998;DHT22;4044;49.814;7.828;2023-09-18T14:11:50;31.10;67.70
7998;DHT22;4044;49.814;7.828;2023-09-18T14:14:16;30.60;66.70
7998;DHT22;4044;49.814;7.828;2023-09-18T14:16:41;30.20;68.10
7998;DHT22;4044;49.814;7.828;2023-09-18T14:19:07;29.50;68.40
7998;DHT22;4044;49.814;7.828;2023-09-18T14:21:36;29.10;69.80
7998;DHT22;4044;49.814;7.828;2023-09-18T14:24:02;28.70;70.70
7998;DHT22;4044;49.814;7.828;2023-09-18T14:26:28;28.30;72.60
7998;DHT22;4044;49.814;7.828;2023-09-18T14:28:53;28.20;73.00
7998;DHT22;4044;49.814;7.828;2023-09-18T14:31:19;28.00;71.40
7998;DHT22;4044;49.814;7.828;2023-09-18T14:33:45;27.70;72.90
7998;DHT22;4044;49.814;7.828;2023-09-18T14:36:10;27.70;73.70
7998;DHT22;4044;49.814;7.828;2023-09-18T14:38:36;27.80;74.80
7998;DHT22;4044;49.814;7.828;2023-09-18T14:41:01;27.70;74.40
7998;DHT22;4044;49.814;7.828;2023-09-18T14:43:28;27.90;74.00
7998;DHT22;4044;49.814;7.828;2023-09-18T14:45:53;28.60;72.80
7998;DHT22;4044;49.814;7.828;2023-09-18T14:48:21;29.20;72.90
7998;DHT22;4044;49.814;7.828;2023-09-18T14:50:57;29.80;71.20
7998;DHT22;4044;49.814;7.828;2023-09-18T14:53:22;30.70;69.00
7998;DHT22;4044;49.814;7.828;2023-09-18T14:55:48;31.70;67.40
7998;DHT22;4044;49.814;7.828;2023-09-18T14:58:14;32.40;64.50
7998;DHT22;4044;49.814;7.828;2023-09-18T15:00:39;33.20;64.50
7998;DHT22;4044;49.814;7.828;2023-09-18T15:03:05;34.20;63.30
7998;DHT22;4044;49.814;7.828;2023-09-18T15:05:31;33.80;58.90
7998;DHT22;4044;49.814;7.828;2023-09-18T15:07:56;33.50;60.80
7998;DHT22;4044;49.814;7.828;2023-09-18T15:10:22;32.50;62.00
7998;DHT22;4044;49.814;7.828;2023-09-18T15:12:47;32.00;65.80
7998;DHT22;4044;49.814;7.828;2023-09-18T15:15:13;31.10;64.90
7998;DHT22;4044;49.814;7.828;2023-09-18T15:17:39;30.50;67.00
7998;DHT22;4044;49.814;7.828;2023-09-18T15:20:06;29.90;65.80
7998;DHT22;4044;49.814;7.828;2023-09-18T15:22:31;29.40;68.30
7998;DHT22;4044;49.814;7.828;2023-09-18T15:24:57;28.60;69.70
7998;DHT22;4044;49.814;7.828;2023-09-18T15:27:23;28.00;71.50
7998;DHT22;4044;49.814;7.828;2023-09-18T15:29:49;27.70;71.90
7998;DHT22;4044;49.814;7.828;2023-09-18T15:32:14;27.50;73.40
7998;DHT22;4044;49.814;7.828;2023-09-18T15:34:40;26.30;99.20
7998;DHT22;4044;49.814;7.828;2023-09-18T15:37:05;25.20;97.70
7998;DHT22;4044;49.814;7.828;2023-09-18T15:39:31;24.90;92.70
7998;DHT22;4044;49.814;7.828;2023-09-18T15:41:58;25.30;90.60
7998;DHT22;4044;49.814;7.828;2023-09-18T15:44:24;25.70;90.10
7998;DHT22;4044;49.814;7.828;2023-09-18T15:46:49;25.50;86.70
7998;DHT22;4044;49.814;7.828;2023-09-18T15:49:15;25.70;88.30
7998;DHT22;4044;49.814;7.828;2023-09-18T15:51:41;25.60;86.90
7998;DHT22;4044;49.814;7.828;2023-09-18T15:54:07;25.40;88.30
7998;DHT22;4044;49.814;7.828;2023-09-18T15:56:32;25.40;88.30
7998;DHT22;4044;49.814;7.828;2023-09-18T15:58:59;25.40;89.10
7998;DHT22;4044;49.814;7.828;2023-09-18T16:01:25;25.30;90.20
7998;DHT22;4044;49.814;7.828;2023-09-18T16:03:51;25.20;90.20
7998;DHT22;4044;49.814;7.828;2023-09-18T16:06:17;25.00;88.10
7998;DHT22;4044;49.814;7.828;2023-09-18T16:08:44;24.90;88.00
7998;DHT22;4044;49.814;7.828;2023-09-18T16:11:10;24.80;89.10
7998;DHT22;4044;49.814;7.828;2023-09-18T16:13:37;24.60;87.30